Latest Weather Observations for Larapuna (Eddystone Point)

IDT60801

Issued at 3:02 pm EST Sunday 25 September 2016 (issued every 30 minutes, with the page automatically refreshed every 10 minutes)

About weather observations | Map of weather stations | Latest weather observations for TAS | Other Formats
Station Details ID: 092045 Name: LARAPUNA (EDDYSTONE POINT) Lat: -40.99 Lon: 148.35 Height: 19.7 m
Data from the previous 72 hours. | See also: Recent months at Larapuna (Eddystone Point)
Date/Time
EST
Temp
°C
App
Temp
°C
Dew
Point
°C
Rel
Hum
%
Delta-T
°C
Wind Press
QNH
hPa
Press
MSL
hPa
Rain since
9am
mm
Dir  Spd
km/h
Gust
km/h
Spd
kts
Gust
kts
25/03:00pm 11.8 6.8 9.4 85 1.2 S 26 33 14 18 1005.2 1005.2 1.4
25/02:30pm 12.9 5.8 8.2 73 2.3 SSE 35 43 19 23 1004.6 1004.6 0.0
25/02:00pm 16.4 9.0 6.8 53 4.8 WNW 35 46 19 25 1004.0 1004.0 0.0
25/01:30pm 16.0 8.6 6.7 54 4.6 WNW 35 50 19 27 1003.6 1003.6 0.0
25/01:20pm 15.6 8.2 6.9 56 4.3 WNW 35 54 19 29 1003.6 1003.6 0.0
25/01:00pm 15.7 7.2 7.0 56 4.3 NW 41 52 22 28 1003.4 1003.4 0.0
25/12:35pm 16.1 9.5 7.6 57 4.3 WNW 32 50 17 27 1003.3 1003.3 0.0
25/12:30pm 16.1 9.4 7.3 56 4.4 WNW 32 46 17 25 1003.4 1003.4 0.0
25/12:00pm 16.2 9.5 7.2 55 4.5 WNW 32 41 17 22 1003.7 1003.7 0.0
25/11:30am 15.1 7.6 6.4 56 4.2 NW 35 46 19 25 1003.7 1003.7 0.0
25/11:00am 15.4 8.5 6.4 55 4.4 WNW 32 41 17 22 1003.6 1003.6 0.0
25/10:30am 15.2 8.7 6.5 56 4.2 WNW 30 43 16 23 1003.4 1003.4 0.0
25/10:00am 15.1 9.6 7.4 60 3.8 WNW 26 37 14 20 1003.3 1003.3 0.0
25/09:30am 14.8 11.1 10.0 73 2.5 W 20 30 11 16 1003.4 1003.4 0.0
25/09:00am 13.8 9.0 10.4 80 1.8 WNW 26 35 14 19 1003.3 1003.3 3.6
25/08:30am 12.7 8.0 10.6 87 1.1 WNW 26 35 14 19 1003.0 1003.0 3.6
25/08:00am 12.3 8.5 11.0 92 0.7 WNW 22 32 12 17 1002.8 1002.8 3.6
25/07:30am 12.0 9.5 10.9 93 0.6 N 15 20 8 11 1002.7 1002.7 3.6
25/07:00am 11.9 9.0 11.0 94 0.5 NNW 17 20 9 11 1002.8 1002.8 3.6
25/06:30am 11.4 9.1 10.5 94 0.5 NNW 13 17 7 9 1002.7 1002.7 3.6
25/06:00am 11.0 8.2 10.1 94 0.5 NW 15 19 8 10 1002.7 1002.7 3.6
25/05:30am 10.7 8.6 9.8 94 0.5 NNW 11 17 6 9 1002.7 1002.7 3.6
25/05:00am 10.7 8.6 9.8 94 0.5 NNW 11 13 6 7 1002.4 1002.4 3.6
25/04:30am 11.2 8.1 10.3 94 0.5 WNW 17 20 9 11 1002.2 1002.2 3.4
25/04:00am 11.1 8.4 10.2 94 0.5 NW 15 19 8 10 1002.3 1002.3 3.4
25/03:30am 11.1 8.0 10.3 95 0.4 NW 17 20 9 11 1002.7 1002.7 3.4
25/03:00am 11.2 8.1 10.4 95 0.4 NW 17 20 9 11 1003.0 1003.0 3.4
25/02:30am 10.9 8.5 10.1 95 0.4 NW 13 19 7 10 1003.2 1003.2 3.4
25/02:00am 10.8 8.4 10.0 95 0.4 NW 13 17 7 9 1003.5 1003.5 3.4
25/01:30am 10.9 8.9 10.1 95 0.4 NW 11 11 6 6 1003.8 1003.8 3.4
25/01:00am 10.8 8.8 10.0 95 0.4 NW 11 13 6 7 1004.0 1004.0 3.4
25/12:30am 10.8 8.8 10.0 95 0.4 WNW 11 19 6 10 1004.2 1004.2 3.4
25/12:00am 10.6 8.9 9.8 95 0.4 NW 9 11 5 6 1004.3 1004.3 3.4
 
Date/Time
EST
Temp
°C
App
Temp
°C
Dew
Point
°C
Rel
Hum
%
Delta-T
°C
Wind Press
QNH
hPa
Press
MSL
hPa
Rain since
9am
mm
Dir  Spd
km/h
Gust
km/h
Spd
kts
Gust
kts
24/11:30pm 11.1 9.1 10.2 94 0.5 WNW 11 15 6 8 1004.7 1004.7 3.4
24/11:00pm 11.9 9.8 11.0 94 0.5 NW 13 17 7 9 1005.3 1005.3 3.4
24/10:30pm 12.3 10.3 11.4 94 0.5 NNW 13 19 7 10 1005.5 1005.5 3.4
24/10:00pm 12.4 11.2 11.5 94 0.5 N 9 11 5 6 1005.8 1005.8 3.4
24/09:30pm 12.4 11.2 11.5 94 0.5 N 9 11 5 6 1006.1 1006.1 3.4
24/09:00pm 12.5 10.5 11.6 94 0.5 NW 13 17 7 9 1006.3 1006.3 3.4
24/08:30pm 13.2 12.2 12.3 94 0.5 NNW 9 11 5 6 1006.5 1006.5 3.4
24/08:00pm 13.2 12.6 12.3 94 0.5 NNW 7 9 4 5 1006.6 1006.6 3.2
24/07:30pm 13.5 12.6 12.6 94 0.5 NW 9 13 5 7 1006.5 1006.5 3.2
24/07:00pm 13.4 11.3 12.5 94 0.5 NNW 15 20 8 11 1006.6 1006.6 3.2
24/06:30pm 13.2 9.3 12.1 93 0.6 N 24 28 13 15 1006.4 1006.4 3.2
24/06:00pm 13.3 9.4 12.2 93 0.6 N 24 28 13 15 1006.4 1006.4 3.2
24/05:30pm 13.4 9.9 12.3 93 0.6 N 22 28 12 15 1006.6 1006.6 3.2
24/05:00pm 13.5 9.7 12.4 93 0.6 NNE 24 30 13 16 1006.6 1006.6 3.0
24/04:30pm 13.5 10.6 12.2 92 0.7 N 19 24 10 13 1006.6 1006.6 1.6
24/04:00pm 13.6 10.5 12.2 91 0.8 N 20 24 11 13 1006.6 1006.6 1.6
24/03:30pm 13.9 9.7 12.3 90 0.9 NNE 26 30 14 16 1006.8 1006.8 1.6
24/03:00pm 14.1 8.6 12.0 87 1.1 NNE 32 35 17 19 1006.9 1006.9 1.6
24/02:30pm 14.3 8.7 12.2 87 1.1 NE 33 35 18 19 1007.1 1007.1 1.6
24/02:00pm 14.8 9.5 12.5 86 1.3 NE 32 35 17 19 1007.4 1007.4 1.6
24/01:30pm 14.7 10.3 12.9 89 1.0 NE 28 32 15 17 1007.9 1007.9 1.6
24/01:00pm 14.5 9.9 12.4 87 1.1 NE 28 32 15 17 1008.2 1008.2 1.6
24/12:30pm 14.7 10.6 12.7 88 1.1 NE 26 30 14 16 1008.9 1008.9 1.6
24/12:00pm 14.9 11.5 12.6 86 1.3 NE 22 26 12 14 1009.2 1009.2 1.6
24/11:30am 15.0 12.7 12.9 87 1.2 NNE 17 20 9 11 1009.6 1009.6 1.6
24/11:00am 14.5 12.6 12.9 90 0.9 NNE 15 17 8 9 1010.1 1010.1 1.6
24/10:30am 14.1 11.4 13.0 93 0.6 NNE 19 20 10 11 1010.5 1010.5 1.6
24/10:00am 14.1 11.8 13.1 94 0.6 NE 17 20 9 11 1010.9 1010.9 1.6
24/09:30am 12.9 9.7 12.0 94 0.5 NE 20 22 11 12 1011.2 1011.2 1.6
24/09:00am 12.6 12.0 11.7 94 0.5 NNW 6 9 3 5 1011.7 1011.7 2.4
24/08:30am 12.3 10.3 11.4 94 0.5 SSW 13 15 7 8 1011.8 1011.8 0.6
24/08:00am 12.0 9.9 11.1 94 0.5 SSW 13 15 7 8 1011.9 1011.9 0.6
24/07:30am 12.0 10.3 11.1 94 0.5 SSW 11 13 6 7 1012.1 1012.1 0.4
24/07:00am 11.4 9.4 10.3 93 0.6 SSW 11 13 6 7 1012.2 1012.2 0.4
24/06:30am 11.2 8.8 10.1 93 0.6 SSW 13 13 7 7 1012.1 1012.1 0.0
24/06:00am 11.2 8.9 10.3 94 0.5 SSW 13 15 7 8 1012.1 1012.1 0.0
24/05:30am 10.6 8.4 9.5 93 0.6 SSW 11 13 6 7 1011.8 1011.8 0.0
24/05:00am 10.5 7.9 9.4 93 0.5 SSW 13 13 7 7 1012.0 1012.0 0.0
24/04:30am 10.7 8.2 9.6 93 0.6 SSW 13 17 7 9 1012.2 1012.2 0.0
24/04:00am 10.6 8.1 9.7 94 0.5 S 13 13 7 7 1012.2 1012.2 0.0
24/03:30am 10.4 7.8 9.5 94 0.5 SSW 13 15 7 8 1012.6 1012.6 0.0
24/03:00am 10.1 7.5 9.2 94 0.4 SSW 13 15 7 8 1012.9 1012.9 0.0
24/02:30am 9.9 6.8 8.8 93 0.5 SW 15 17 8 9 1013.0 1013.0 0.0
24/02:00am 10.6 7.7 9.7 94 0.5 S 15 15 8 8 1013.2 1013.2 0.0
24/01:30am 9.9 7.5 8.8 93 0.5 SSW 11 13 6 7 1013.5 1013.5 0.0
24/01:00am 10.3 7.3 9.2 93 0.5 SSW 15 17 8 9 1013.6 1013.6 0.0
24/12:30am 10.5 7.9 9.4 93 0.5 S 13 15 7 8 1013.8 1013.8 0.0
24/12:00am 10.2 8.3 9.1 93 0.5 SSW 9 13 5 7 1014.2 1014.2 0.0
 
Date/Time
EST
Temp
°C
App
Temp
°C
Dew
Point
°C
Rel
Hum
%
Delta-T
°C
Wind Press
QNH
hPa
Press
MSL
hPa
Rain since
9am
mm
Dir  Spd
km/h
Gust
km/h
Spd
kts
Gust
kts
23/11:30pm 10.4 8.2 9.3 93 0.5 SSW 11 13 6 7 1014.3 1014.3 0.0
23/11:00pm 10.1 7.4 9.0 93 0.5 SW 13 13 7 7 1014.6 1014.6 0.0
23/10:30pm 10.4 7.4 9.3 93 0.5 SW 15 17 8 9 1014.8 1014.8 0.0
23/10:00pm 10.4 8.5 9.2 92 0.6 SW 9 11 5 6 1014.9 1014.9 0.0
23/09:30pm 10.5 9.0 9.3 92 0.6 SSW 7 9 4 5 1015.0 1015.0 0.0
23/09:00pm 10.9 9.5 9.5 91 0.7 SSW 7 9 4 5 1015.1 1015.1 0.0
23/08:30pm 11.1 9.7 9.7 91 0.7 SSW 7 9 4 5 1015.1 1015.1 0.0
23/08:00pm 11.5 10.2 9.9 90 0.8 SSE 7 9 4 5 1015.1 1015.1 0.0
23/07:30pm 11.8 10.8 10.2 90 0.8 SSE 6 7 3 4 1015.1 1015.1 0.0
23/07:00pm 11.7 10.4 9.9 89 0.9 SSE 7 9 4 5 1015.0 1015.0 0.0
23/06:30pm 11.8 10.1 9.9 88 1.0 SSE 9 11 5 6 1014.8 1014.8 0.0
23/06:00pm 12.2 10.6 10.1 87 1.1 SSE 9 11 5 6 1014.7 1014.7 0.0
23/05:30pm 12.7 10.3 10.2 85 1.3 SE 13 15 7 8 1014.6 1014.6 0.0
23/05:00pm 13.4 11.1 10.4 82 1.6 SE 13 17 7 9 1014.6 1014.6 0.0
23/04:30pm 14.2 11.9 10.6 79 1.9 SE 13 15 7 8 1014.6 1014.6 0.0
23/04:00pm 15.0 12.4 10.8 76 2.2 ESE 15 19 8 10 1014.5 1014.5 0.0
23/03:30pm 14.6 11.5 10.4 76 2.2 ESE 17 20 9 11 1014.7 1014.7 0.0
23/03:00pm 14.7 11.9 10.1 74 2.4 SE 15 22 8 12 1014.8 1014.8 0.0
23/02:30pm 15.2 12.5 10.2 72 2.6 SE 15 20 8 11 1015.0 1015.0 0.0
23/02:00pm 15.2 12.1 10.2 72 2.6 SE 17 20 9 11 1015.2 1015.2 0.0
23/01:30pm 15.5 12.3 10.1 70 2.8 SE 17 22 9 12 1015.4 1015.4 0.0
23/01:00pm 15.6 12.1 10.2 70 2.8 SSE 19 22 10 12 1015.8 1015.8 0.0
23/12:30pm 15.5 11.8 10.1 70 2.8 SSE 20 24 11 13 1016.1 1016.1 0.0
23/12:00pm 16.1 12.0 10.2 68 3.1 S 22 24 12 13 1016.4 1016.4 0.0
23/11:30am 16.1 11.7 10.4 69 3.0 S 24 30 13 16 1016.5 1016.5 0.0
23/11:00am 15.9 11.0 10.0 68 3.1 S 26 30 14 16 1016.7 1016.7 0.0
23/10:30am 15.7 10.8 9.8 68 3.1 S 26 30 14 16 1017.0 1017.0 0.0
23/10:00am 15.2 10.2 9.6 69 2.9 S 26 32 14 17 1017.2 1017.2 0.0
23/09:30am 14.9 9.4 9.3 69 2.9 S 28 33 15 18 1017.3 1017.3 0.0
23/09:00am 14.2 9.5 9.4 73 2.5 S 24 28 13 15 1017.3 1017.3 0.8
23/08:30am 13.6 8.9 9.3 75 2.2 S 24 28 13 15 1017.3 1017.3 0.8
23/08:00am 12.3 8.3 9.0 80 1.7 SSW 20 24 11 13 1017.3 1017.3 0.8
23/07:30am 11.5 8.0 8.9 84 1.3 SSW 17 19 9 10 1017.2 1017.2 0.8
23/07:00am 10.3 6.7 8.2 87 1.0 SSW 17 19 9 10 1017.0 1017.0 0.8
23/06:30am 9.1 5.2 7.2 88 0.9 SSW 17 20 9 11 1016.9 1016.9 0.8
23/06:00am 8.9 5.4 7.2 89 0.8 SSW 15 19 8 10 1016.6 1016.6 0.8
23/05:30am 8.8 4.9 7.1 89 0.8 SSW 17 19 9 10 1016.3 1016.3 0.8
23/05:00am 8.8 5.3 7.1 89 0.8 SSW 15 17 8 9 1016.1 1016.1 0.8
23/04:30am 8.8 5.6 6.9 88 0.9 SSW 13 17 7 9 1015.9 1015.9 0.6
23/04:00am 9.0 5.1 7.3 89 0.8 SSW 17 20 9 11 1015.9 1015.9 0.6
23/03:30am 9.5 5.4 7.8 89 0.8 SSW 19 20 10 11 1015.7 1015.7 0.6
23/03:00am 9.6 5.3 7.7 88 0.9 SSW 20 22 11 12 1015.7 1015.7 0.6
23/02:30am 9.8 5.5 7.9 88 0.9 SSW 20 24 11 13 1015.7 1015.7 0.6
23/02:00am 10.5 6.4 8.6 88 0.9 S 20 24 11 13 1015.8 1015.8 0.6
23/01:30am 10.2 5.7 8.5 89 0.8 SSW 22 26 12 14 1015.9 1015.9 0.6
23/01:00am 9.8 5.6 8.1 89 0.8 SW 20 22 11 12 1016.2 1016.2 0.6
23/12:30am 10.0 6.0 8.3 89 0.8 SSW 19 20 10 11 1016.3 1016.3 0.6
23/12:00am 9.7 5.6 8.0 89 0.8 SW 19 20 10 11 1016.3 1016.3 0.6
 
Date/Time
EST
Temp
°C
App
Temp
°C
Dew
Point
°C
Rel
Hum
%
Delta-T
°C
Wind Press
QNH
hPa
Press
MSL
hPa
Rain since
9am
mm
Dir  Spd
km/h
Gust
km/h
Spd
kts
Gust
kts
22/11:30pm 9.8 5.8 8.1 89 0.8 SW 19 20 10 11 1016.5 1016.5 0.6
22/11:00pm 9.5 6.5 7.8 89 0.8 SW 13 19 7 10 1016.5 1016.5 0.6
22/10:30pm 10.6 7.2 9.0 90 0.8 SSW 17 19 9 10 1016.6 1016.6 0.6
22/10:00pm 10.8 7.1 9.4 91 0.7 SSW 19 22 10 12 1016.5 1016.5 0.6
22/09:30pm 11.6 7.5 10.2 91 0.7 SSW 22 26 12 14 1016.4 1016.4 0.6
22/09:00pm 11.6 7.5 10.2 91 0.7 SSW 22 26 12 14 1016.2 1016.2 0.6
22/08:30pm 11.7 7.2 10.1 90 0.8 SSW 24 28 13 15 1016.2 1016.2 0.6
22/08:00pm 11.8 6.6 10.2 90 0.8 SSW 28 30 15 16 1016.0 1016.0 0.6
22/07:30pm 12.0 7.2 10.4 90 0.8 SSW 26 30 14 16 1015.8 1015.8 0.6
22/07:00pm 12.1 8.5 10.5 90 0.8 S 20 24 11 13 1015.5 1015.5 0.6
22/06:30pm 12.2 7.8 10.4 89 0.9 S 24 28 13 15 1015.2 1015.2 0.6
22/06:00pm 12.4 7.7 10.5 88 1.0 S 26 30 14 16 1015.1 1015.1 0.6
22/05:30pm 12.6 7.5 10.5 87 1.1 S 28 32 15 17 1014.7 1014.7 0.6
22/05:00pm 13.1 7.6 10.6 85 1.3 S 30 35 16 19 1014.3 1014.3 0.6
22/04:30pm 13.6 7.7 11.1 85 1.3 S 33 39 18 21 1013.9 1013.9 0.6
22/04:00pm 13.5 7.8 11.2 86 1.2 S 32 35 17 19 1013.8 1013.8 0.6
22/03:30pm 14.1 8.5 11.4 84 1.4 S 32 35 17 19 1013.6 1013.6 0.6

Other Formats:

Comma delimited format used in spreadsheet applications
http://www.bom.gov.au/fwo/IDT60801/IDT60801.94983.axf

JavaScript Object Notation format (JSON) in row-major order
http://www.bom.gov.au/fwo/IDT60801/IDT60801.94983.json